createdAt,value
2023-12-05T00:02:25.150Z,4.14
2023-12-05T00:04:52.703Z,2.95
2023-12-05T00:07:24.183Z,3.62
2023-12-05T00:09:51.968Z,3.93
2023-12-05T00:12:19.532Z,3.88
2023-12-05T00:14:47.176Z,3.15
2023-12-05T00:17:14.892Z,3.71
2023-12-05T00:19:42.634Z,3.33
2023-12-05T00:22:10.207Z,3.67
2023-12-05T00:24:39.311Z,3.74
2023-12-05T00:27:06.924Z,3.43
2023-12-05T00:29:34.436Z,3.96
2023-12-05T00:32:01.979Z,3.23
2023-12-05T00:34:29.508Z,3.48
2023-12-05T00:36:57.208Z,3.71
2023-12-05T00:39:24.734Z,4.65
2023-12-05T00:41:53.677Z,4.71
2023-12-05T00:44:21.220Z,4.38
2023-12-05T00:46:48.804Z,3.89
2023-12-05T00:49:16.429Z,3.69
2023-12-05T00:51:44.019Z,3.63
2023-12-05T00:54:13.161Z,3.91
2023-12-05T00:56:41.974Z,3.42
2023-12-05T00:59:10.767Z,3.43
2023-12-05T01:01:38.295Z,2.90
2023-12-05T01:04:06.324Z,3.54
2023-12-05T01:06:33.990Z,3.74
2023-12-05T01:09:01.676Z,3.43
2023-12-05T01:11:29.343Z,3.09
2023-12-05T01:13:57.461Z,4.22
2023-12-05T01:16:26.386Z,3.37
2023-12-05T01:18:53.942Z,3.83
2023-12-05T01:21:21.556Z,3.48
2023-12-05T01:23:49.071Z,3.85
2023-12-05T01:26:16.565Z,3.26
2023-12-05T01:28:44.047Z,3.79
2023-12-05T01:31:11.552Z,3.86
2023-12-05T01:33:40.427Z,3.33
2023-12-05T01:36:11.232Z,2.68
2023-12-05T01:38:38.876Z,3.72
2023-12-05T01:41:06.398Z,3.93
2023-12-05T01:43:33.840Z,3.80
2023-12-05T01:46:02.269Z,3.41
2023-12-05T01:48:31.899Z,2.96
2023-12-05T01:51:02.231Z,3.13
2023-12-05T01:53:30.304Z,3.60
2023-12-05T01:55:57.966Z,2.93
2023-12-05T01:58:25.681Z,3.41
2023-12-05T02:00:53.604Z,3.61
2023-12-05T02:03:21.342Z,3.29
2023-12-05T02:05:50.977Z,3.66
2023-12-05T02:08:23.160Z,3.45
2023-12-05T02:10:51.062Z,3.78
2023-12-05T02:13:18.702Z,4.51
2023-12-05T02:15:48.739Z,4.50
2023-12-05T02:18:19.643Z,4.11
2023-12-05T02:20:52.563Z,2.97
2023-12-05T02:24:06.936Z,3.32
2023-12-05T02:26:43.803Z,3.43
2023-12-05T02:29:12.769Z,3.38
2023-12-05T02:31:40.261Z,3.83
2023-12-05T02:34:08.317Z,3.84
2023-12-05T02:36:43.044Z,4.45
2023-12-05T02:39:17.910Z,3.41
2023-12-05T02:41:50.421Z,4.27
2023-12-05T02:44:20.520Z,3.58
2023-12-05T02:46:50.667Z,2.63
2023-12-05T02:49:18.790Z,3.85
2023-12-05T02:51:46.390Z,4.41
2023-12-05T02:54:14.020Z,3.69
2023-12-05T02:56:41.591Z,3.35
2023-12-05T02:59:08.996Z,2.77
2023-12-05T03:01:41.295Z,2.91
2023-12-05T03:04:09.042Z,3.11
2023-12-05T03:06:36.771Z,3.12
2023-12-05T03:09:04.790Z,4.18
2023-12-05T03:11:32.767Z,4.07
2023-12-05T03:14:00.690Z,3.57
2023-12-05T03:16:28.313Z,4.04
2023-12-05T03:18:57.835Z,3.00
2023-12-05T03:21:25.805Z,3.58
2023-12-05T03:23:53.526Z,3.51
2023-12-05T03:26:21.540Z,4.33
2023-12-05T03:28:49.789Z,3.95
2023-12-05T03:31:17.513Z,4.11
2023-12-05T03:33:45.553Z,4.50
2023-12-05T03:36:14.896Z,3.63
2023-12-05T03:38:42.711Z,3.47
2023-12-05T03:41:10.791Z,2.95
2023-12-05T03:43:38.326Z,3.21
2023-12-05T03:46:06.096Z,3.83
2023-12-05T03:48:33.768Z,4.20
2023-12-05T03:51:01.318Z,3.89
2023-12-05T03:53:30.180Z,3.96
2023-12-05T03:55:57.620Z,4.16
2023-12-05T03:58:25.383Z,3.51
2023-12-05T04:00:52.933Z,4.26
2023-12-05T04:03:21.487Z,4.84
2023-12-05T04:05:49.063Z,4.39
2023-12-05T04:08:16.654Z,4.99
2023-12-05T04:10:45.438Z,4.73
2023-12-05T04:13:12.944Z,4.46
2023-12-05T04:15:41.732Z,5.29
2023-12-05T04:18:09.353Z,4.73
2023-12-05T04:20:36.918Z,4.12
2023-12-05T04:23:04.431Z,4.35
2023-12-05T04:25:31.913Z,4.57
2023-12-05T04:28:00.705Z,5.35
2023-12-05T04:30:28.186Z,3.51
2023-12-05T04:32:55.751Z,4.50
2023-12-05T04:35:23.271Z,3.49
2023-12-05T04:37:50.763Z,4.42
2023-12-05T04:40:20.210Z,3.92
2023-12-05T04:42:48.086Z,3.81
2023-12-05T04:45:17.358Z,4.56
2023-12-05T04:47:45.369Z,4.03
2023-12-05T04:50:12.857Z,3.44
2023-12-05T04:52:40.349Z,3.01
2023-12-05T04:55:08.409Z,3.52
2023-12-05T04:57:35.907Z,4.41
2023-12-05T05:00:04.344Z,4.20
2023-12-05T05:02:33.153Z,3.87
2023-12-05T05:05:01.136Z,3.15
2023-12-05T05:07:28.719Z,3.67
2023-12-05T05:09:56.200Z,3.58
2023-12-05T05:12:23.720Z,4.45
2023-12-05T05:14:51.148Z,3.37
2023-12-05T05:17:18.566Z,3.89
2023-12-05T05:19:47.406Z,4.06
2023-12-05T05:22:15.174Z,4.27
2023-12-05T05:24:42.850Z,4.02
2023-12-05T05:27:10.496Z,3.22
2023-12-05T05:29:37.969Z,3.36
2023-12-05T05:32:06.312Z,4.27
2023-12-05T05:34:33.953Z,4.15
2023-12-05T05:37:02.898Z,4.27
2023-12-05T05:39:30.439Z,3.35
2023-12-05T05:41:57.946Z,3.94
2023-12-05T05:44:25.903Z,4.63
2023-12-05T05:46:53.381Z,4.82
2023-12-05T05:49:20.984Z,5.28
2023-12-05T05:51:48.549Z,4.94
2023-12-05T05:54:17.466Z,4.40
2023-12-05T05:56:44.897Z,3.87
2023-12-05T05:59:12.375Z,4.72
2023-12-05T06:01:39.843Z,4.95
2023-12-05T06:04:07.377Z,5.14
2023-12-05T06:06:34.926Z,3.72
2023-12-05T06:09:02.467Z,3.79
2023-12-05T06:11:31.337Z,4.18
2023-12-05T06:13:58.863Z,4.30
2023-12-05T06:16:26.752Z,4.74
2023-12-05T06:18:55.345Z,4.39
2023-12-05T06:21:22.955Z,3.95
2023-12-05T06:23:50.430Z,3.83
2023-12-05T06:26:19.597Z,3.97
2023-12-05T06:28:48.382Z,3.96
2023-12-05T06:31:17.496Z,4.19
2023-12-05T06:33:46.241Z,3.80
2023-12-05T06:36:15.104Z,4.35
2023-12-05T06:38:42.562Z,3.60
2023-12-05T06:41:10.179Z,3.94
2023-12-05T06:43:37.801Z,4.83
2023-12-05T06:46:06.917Z,4.71
2023-12-05T06:48:34.471Z,4.18
2023-12-05T06:51:02.062Z,3.99
2023-12-05T06:53:29.719Z,5.11
2023-12-05T06:55:58.193Z,4.11
2023-12-05T06:58:26.297Z,3.92
2023-12-05T07:00:53.820Z,4.15
2023-12-05T07:03:23.436Z,3.96
2023-12-05T07:05:51.045Z,3.39
2023-12-05T07:08:19.788Z,3.56
2023-12-05T07:10:47.221Z,4.22
2023-12-05T07:13:14.817Z,3.94
2023-12-05T07:15:42.306Z,3.18
2023-12-05T07:18:10.278Z,4.61
2023-12-05T07:20:39.113Z,4.06
2023-12-05T07:23:06.695Z,4.34
2023-12-05T07:25:34.109Z,4.94
2023-12-05T07:28:01.540Z,4.02
2023-12-05T07:30:28.998Z,4.29
2023-12-05T07:32:56.522Z,3.16
2023-12-05T07:35:24.282Z,3.69
2023-12-05T07:37:53.146Z,3.51
2023-12-05T07:40:20.938Z,4.23
2023-12-05T07:42:48.431Z,3.55
2023-12-05T07:45:16.031Z,4.50
2023-12-05T07:47:44.454Z,4.66
2023-12-05T07:50:14.253Z,4.50
2023-12-05T07:52:42.843Z,4.03
2023-12-05T07:55:11.755Z,3.46
2023-12-05T07:57:39.235Z,4.00
2023-12-05T08:00:15.625Z,3.89
2023-12-05T08:02:43.128Z,4.29
2023-12-05T08:05:11.466Z,4.58
2023-12-05T08:07:39.220Z,4.26
2023-12-05T08:10:07.693Z,3.89
2023-12-05T08:12:36.928Z,3.22
2023-12-05T08:15:05.592Z,4.69
2023-12-05T08:17:33.082Z,4.29
2023-12-05T08:20:00.596Z,3.50
2023-12-05T08:22:28.066Z,3.60
2023-12-05T08:24:55.588Z,3.44
2023-12-05T08:27:23.629Z,3.64
2023-12-05T08:29:52.429Z,3.92
2023-12-05T08:32:19.867Z,4.66
2023-12-05T08:34:47.465Z,4.78
2023-12-05T08:37:15.092Z,4.35
2023-12-05T08:39:42.779Z,4.82
2023-12-05T08:42:10.242Z,4.63
2023-12-05T08:44:37.656Z,4.86
2023-12-05T08:47:06.768Z,5.50
2023-12-05T08:49:34.355Z,3.97
2023-12-05T08:52:01.854Z,3.61
2023-12-05T08:54:29.321Z,4.63
2023-12-05T08:56:57.307Z,4.39
2023-12-05T08:59:24.811Z,5.01
2023-12-05T09:01:52.369Z,3.66
2023-12-05T09:04:21.325Z,4.87
2023-12-05T09:06:49.199Z,4.99
2023-12-05T09:09:17.876Z,3.68
2023-12-05T09:11:46.618Z,4.17
2023-12-05T09:14:14.129Z,4.99
2023-12-05T09:16:42.052Z,4.19
2023-12-05T09:19:09.708Z,3.81
2023-12-05T09:21:38.696Z,3.78
2023-12-05T09:24:09.319Z,5.73
2023-12-05T09:26:36.785Z,4.85
2023-12-05T09:29:05.076Z,5.46
2023-12-05T09:31:33.005Z,4.86
2023-12-05T09:34:00.580Z,4.27
2023-12-05T09:36:28.104Z,3.81
2023-12-05T09:38:57.538Z,4.09
2023-12-05T09:41:25.322Z,4.84
2023-12-05T09:43:53.291Z,4.37
2023-12-05T09:46:22.601Z,5.68
2023-12-05T09:48:52.361Z,4.93
2023-12-05T09:51:20.127Z,5.22
2023-12-05T09:53:50.072Z,5.85
2023-12-05T09:56:20.247Z,6.12
2023-12-05T09:58:48.266Z,5.99
2023-12-05T10:01:17.325Z,5.90
2023-12-05T10:03:46.357Z,4.71
2023-12-05T10:06:19.860Z,4.67
2023-12-05T10:08:48.462Z,3.99
2023-12-05T10:11:16.081Z,4.26
2023-12-05T10:13:45.704Z,5.71
2023-12-05T10:16:13.493Z,5.66
2023-12-05T10:18:42.287Z,4.95
2023-12-05T10:21:09.854Z,5.44
2023-12-05T10:23:37.498Z,6.32
2023-12-05T10:26:05.316Z,6.07
2023-12-05T10:28:32.773Z,5.14
2023-12-05T10:31:14.883Z,5.25
2023-12-05T10:33:42.555Z,5.64
2023-12-05T10:36:13.541Z,5.57
2023-12-05T10:38:44.659Z,5.44
2023-12-05T10:41:12.419Z,4.89
2023-12-05T10:43:49.490Z,4.93
2023-12-05T10:46:18.462Z,6.23
2023-12-05T10:48:46.298Z,6.22
2023-12-05T10:51:13.005Z,5.25
2023-12-05T10:53:41.115Z,5.30
2023-12-05T10:56:16.364Z,5.66
2023-12-05T10:58:44.488Z,6.10
2023-12-05T11:01:13.023Z,5.93
2023-12-05T11:03:42.975Z,6.00
2023-12-05T11:06:10.900Z,6.39
2023-12-05T11:08:38.557Z,6.21
2023-12-05T11:11:06.971Z,5.76
2023-12-05T11:13:36.553Z,5.84
2023-12-05T11:16:11.170Z,7.26
2023-12-05T11:18:41.156Z,6.57
2023-12-05T11:21:28.306Z,6.48
2023-12-05T11:24:06.765Z,7.44
2023-12-05T11:26:55.750Z,6.74
2023-12-05T11:29:55.393Z,7.05
2023-12-05T11:32:32.648Z,7.81
2023-12-05T11:35:10.635Z,6.99
2023-12-05T11:37:53.888Z,7.44
2023-12-05T11:40:21.426Z,7.17
2023-12-05T11:43:08.701Z,6.42
2023-12-05T11:45:40.094Z,6.66
2023-12-05T11:48:10.651Z,6.75
2023-12-05T11:50:44.342Z,6.71
2023-12-05T11:53:15.371Z,7.28
2023-12-05T11:55:46.928Z,7.69
2023-12-05T11:58:28.208Z,6.89
2023-12-05T12:01:06.983Z,6.94
2023-12-05T12:03:53.167Z,5.58
2023-12-05T12:06:22.224Z,7.29
2023-12-05T12:08:54.563Z,8.02
2023-12-05T12:11:23.457Z,7.56
2023-12-05T12:13:51.698Z,7.59
2023-12-05T12:16:20.600Z,6.27
2023-12-05T12:18:53.808Z,5.98
2023-12-05T12:21:24.329Z,7.04
2023-12-05T12:23:59.264Z,7.01
2023-12-05T12:26:27.405Z,7.56
2023-12-05T12:28:54.949Z,7.79
2023-12-05T12:31:26.996Z,7.33
2023-12-05T12:33:55.110Z,6.57
2023-12-05T12:36:23.631Z,5.75
2023-12-05T12:38:51.577Z,6.38
2023-12-05T12:41:21.348Z,7.20
2023-12-05T12:43:48.858Z,7.01
2023-12-05T12:46:16.632Z,6.98
2023-12-05T12:48:44.391Z,6.50
2023-12-05T12:51:12.463Z,7.39
2023-12-05T12:53:40.011Z,7.37
2023-12-05T12:56:10.986Z,7.78
2023-12-05T12:58:41.109Z,6.87
2023-12-05T13:01:11.534Z,6.68
2023-12-05T13:03:39.335Z,6.29
2023-12-05T13:06:07.190Z,6.87
2023-12-05T13:08:34.783Z,7.19
2023-12-05T13:11:02.347Z,7.15
2023-12-05T13:13:30.199Z,7.18
2023-12-05T13:15:59.609Z,7.64
2023-12-05T13:18:27.244Z,8.25
2023-12-05T13:20:56.352Z,7.69
2023-12-05T13:23:24.675Z,7.37
2023-12-05T13:25:52.465Z,7.72
2023-12-05T13:28:20.094Z,6.89
2023-12-05T13:30:47.641Z,5.84
2023-12-05T13:33:17.021Z,6.80
2023-12-05T13:35:45.015Z,7.73
2023-12-05T13:38:12.866Z,6.83
2023-12-05T13:40:40.416Z,6.27
2023-12-05T13:43:08.142Z,6.51
2023-12-05T13:45:36.122Z,6.52
2023-12-05T13:48:04.951Z,6.03
2023-12-05T13:50:33.877Z,5.69
2023-12-05T13:53:01.438Z,6.96
2023-12-05T13:55:29.092Z,6.84
2023-12-05T13:57:56.669Z,6.80
2023-12-05T14:00:24.947Z,6.60
2023-12-05T14:02:52.565Z,6.70
2023-12-05T14:05:20.288Z,6.52
2023-12-05T14:07:49.198Z,6.47
2023-12-05T14:10:17.094Z,6.34
2023-12-05T14:12:44.574Z,6.35
2023-12-05T14:15:12.571Z,6.12
2023-12-05T14:17:40.042Z,5.94
2023-12-05T14:20:11.486Z,6.87
2023-12-05T14:22:39.718Z,6.47
2023-12-05T14:25:10.297Z,5.38
2023-12-05T14:27:37.914Z,5.86
2023-12-05T14:30:06.355Z,5.72
2023-12-05T14:32:33.978Z,5.57
2023-12-05T14:35:01.598Z,5.21
2023-12-05T14:37:29.133Z,5.57
2023-12-05T14:39:57.454Z,6.17
2023-12-05T14:42:26.484Z,6.35
2023-12-05T14:44:53.948Z,6.22
2023-12-05T14:47:21.649Z,6.66
2023-12-05T14:49:53.994Z,6.32
2023-12-05T14:52:21.585Z,6.55
2023-12-05T14:54:49.093Z,6.43
2023-12-05T14:57:16.988Z,6.48
2023-12-05T14:59:46.127Z,5.80
2023-12-05T15:02:13.629Z,5.61
2023-12-05T15:04:41.561Z,5.65
2023-12-05T15:07:09.150Z,5.41
2023-12-05T15:09:36.996Z,4.88
2023-12-05T15:12:05.393Z,6.01
2023-12-05T15:14:32.829Z,4.97
2023-12-05T15:17:04.908Z,5.68
2023-12-05T15:19:32.478Z,5.23
2023-12-05T15:22:00.129Z,5.72
2023-12-05T15:24:27.724Z,5.16
2023-12-05T15:26:55.193Z,5.64
2023-12-05T15:29:28.617Z,5.15
2023-12-05T15:32:05.356Z,5.73
2023-12-05T15:34:34.943Z,5.65
2023-12-05T15:37:03.053Z,6.31
2023-12-05T15:39:35.021Z,6.19
2023-12-05T15:42:04.562Z,6.75
2023-12-05T15:44:33.605Z,6.50
2023-12-05T15:47:01.152Z,7.07
2023-12-05T15:49:29.965Z,5.65
2023-12-05T15:51:57.584Z,5.99
2023-12-05T15:54:25.135Z,5.72
2023-12-05T15:56:53.076Z,6.92
2023-12-05T15:59:20.905Z,6.87
2023-12-05T16:01:48.620Z,6.93
2023-12-05T16:04:16.111Z,5.60
2023-12-05T16:06:45.889Z,5.64
2023-12-05T16:09:21.140Z,5.97
2023-12-05T16:11:52.811Z,6.01
2023-12-05T16:14:22.569Z,5.38
2023-12-05T16:16:50.667Z,5.91
2023-12-05T16:19:18.172Z,6.04
2023-12-05T16:21:47.038Z,6.55
2023-12-05T16:24:14.551Z,6.35
2023-12-05T16:26:42.956Z,5.82
2023-12-05T16:29:10.445Z,5.56
2023-12-05T16:31:37.892Z,5.41
2023-12-05T16:34:05.625Z,6.53
2023-12-05T16:36:33.172Z,6.26
2023-12-05T16:39:01.967Z,5.57
2023-12-05T16:41:33.865Z,5.89
2023-12-05T16:44:01.470Z,7.12
2023-12-05T16:46:30.120Z,6.77
2023-12-05T16:48:57.719Z,6.46
2023-12-05T16:51:27.064Z,6.80
2023-12-05T16:53:54.661Z,5.65
2023-12-05T16:56:23.436Z,5.83
2023-12-05T16:58:50.889Z,5.59
2023-12-05T17:01:18.427Z,6.12
2023-12-05T17:03:46.056Z,6.23
2023-12-05T17:06:13.615Z,6.47
2023-12-05T17:08:41.117Z,6.54
2023-12-05T17:11:08.551Z,6.20
2023-12-05T17:13:37.335Z,5.81
2023-12-05T17:16:05.555Z,5.61
2023-12-05T17:18:33.031Z,6.02
2023-12-05T17:21:00.927Z,5.96
2023-12-05T17:23:30.479Z,6.79
2023-12-05T17:25:57.953Z,6.48
2023-12-05T17:28:25.387Z,5.95
2023-12-05T17:30:54.203Z,6.08
2023-12-05T17:33:21.862Z,5.66
2023-12-05T17:35:49.425Z,5.55
2023-12-05T17:38:16.892Z,6.27
2023-12-05T17:40:44.334Z,6.38
2023-12-05T17:43:11.851Z,6.84
2023-12-05T17:45:39.523Z,6.69
2023-12-05T17:48:08.740Z,6.75
2023-12-05T17:50:36.213Z,5.90
2023-12-05T17:53:03.654Z,7.04
2023-12-05T17:55:31.241Z,6.51
2023-12-05T17:57:58.835Z,5.82
2023-12-05T18:00:26.763Z,6.99
2023-12-05T18:02:55.277Z,6.18
2023-12-05T18:05:24.130Z,6.74
2023-12-05T18:07:57.853Z,6.58
2023-12-05T18:10:27.444Z,6.98
2023-12-05T18:12:55.055Z,6.78
2023-12-05T18:15:22.585Z,6.57
2023-12-05T18:17:51.187Z,5.93
2023-12-05T18:20:18.735Z,5.77
2023-12-05T18:22:47.781Z,6.32
2023-12-05T18:25:15.960Z,6.62
2023-12-05T18:27:44.177Z,6.68
2023-12-05T18:30:12.077Z,6.47
2023-12-05T18:32:39.743Z,6.74
2023-12-05T18:35:07.738Z,6.88
2023-12-05T18:37:37.258Z,7.02
2023-12-05T18:40:07.592Z,6.10
2023-12-05T18:42:35.333Z,6.45
2023-12-05T18:45:02.833Z,6.39
2023-12-05T18:47:30.336Z,6.51
2023-12-05T18:49:58.102Z,6.14
2023-12-05T18:52:25.748Z,5.66
2023-12-05T18:54:53.292Z,6.09
2023-12-05T18:57:22.259Z,6.19
2023-12-05T18:59:49.789Z,6.47
2023-12-05T19:02:17.232Z,6.83
2023-12-05T19:04:44.717Z,5.27
2023-12-05T19:07:14.029Z,5.85
2023-12-05T19:09:43.052Z,6.03
2023-12-05T19:12:10.790Z,5.64
2023-12-05T19:14:39.575Z,6.14
2023-12-05T19:17:07.143Z,6.36
2023-12-05T19:19:34.765Z,6.04
2023-12-05T19:22:04.312Z,5.77
2023-12-05T19:24:31.990Z,5.89
2023-12-05T19:27:00.879Z,5.47
2023-12-05T19:29:28.350Z,6.53
2023-12-05T19:31:57.105Z,5.93
2023-12-05T19:34:35.102Z,6.18
2023-12-05T19:37:08.180Z,6.62
2023-12-05T19:39:36.003Z,5.89
2023-12-05T19:42:03.984Z,6.33
2023-12-05T19:44:31.525Z,6.09
2023-12-05T19:47:00.334Z,6.47
2023-12-05T19:49:27.966Z,6.94
2023-12-05T19:51:55.718Z,6.07
2023-12-05T19:54:23.383Z,6.60
2023-12-05T19:56:51.051Z,6.78
2023-12-05T19:59:18.472Z,6.69
2023-12-05T20:01:45.992Z,6.60
2023-12-05T20:04:14.916Z,6.78
2023-12-05T20:06:42.686Z,6.13
2023-12-05T20:09:11.174Z,6.09
2023-12-05T20:11:38.813Z,6.28
2023-12-05T20:14:06.260Z,5.77
2023-12-05T20:16:33.728Z,5.91
2023-12-05T20:19:01.584Z,6.08
2023-12-05T20:21:30.676Z,6.08
2023-12-05T20:23:59.115Z,5.58
2023-12-05T20:26:26.545Z,6.42
2023-12-05T20:28:54.061Z,6.27
2023-12-05T20:31:21.601Z,5.99
2023-12-05T20:33:49.198Z,6.08
2023-12-05T20:36:16.674Z,5.75
2023-12-05T20:38:45.547Z,4.40
2023-12-05T20:41:15.593Z,5.33
2023-12-05T20:43:45.050Z,4.88
2023-12-05T20:46:14.028Z,5.47
2023-12-05T20:48:44.096Z,5.61
2023-12-05T20:51:12.793Z,6.33
2023-12-05T20:53:40.362Z,6.76
2023-12-05T20:56:10.452Z,6.54
2023-12-05T20:58:37.921Z,6.13
2023-12-05T21:01:06.777Z,6.70
2023-12-05T21:03:34.236Z,6.60
2023-12-05T21:06:01.920Z,6.27
2023-12-05T21:09:08.934Z,6.27
2023-12-05T21:11:18.118Z,5.12
2023-12-05T21:13:45.581Z,5.45
2023-12-05T21:16:13.138Z,5.38
2023-12-05T21:18:40.759Z,5.27
2023-12-05T21:21:08.757Z,6.35
2023-12-05T21:23:37.552Z,6.61
2023-12-05T21:26:05.249Z,6.56
2023-12-05T21:28:34.023Z,6.83
2023-12-05T21:31:01.498Z,6.40
2023-12-05T21:33:28.991Z,6.45
2023-12-05T21:35:56.433Z,5.41
2023-12-05T21:38:23.895Z,6.06
2023-12-05T21:40:51.473Z,6.63
2023-12-05T21:43:19.008Z,5.52
2023-12-05T21:45:47.788Z,5.67
2023-12-05T21:48:16.425Z,5.42
2023-12-05T21:50:44.270Z,6.04
2023-12-05T21:53:11.710Z,6.60
2023-12-05T21:55:39.178Z,6.34
2023-12-05T21:58:06.676Z,6.04
2023-12-05T22:00:34.178Z,5.57
2023-12-05T22:03:03.065Z,5.73
2023-12-05T22:05:30.501Z,6.38
2023-12-05T22:07:58.059Z,6.78
2023-12-05T22:10:25.613Z,5.71
2023-12-05T22:12:53.095Z,5.71
2023-12-05T22:15:20.536Z,5.81
2023-12-05T22:17:48.105Z,6.46
2023-12-05T22:20:17.010Z,6.51
2023-12-05T22:22:44.518Z,5.79
2023-12-05T22:25:12.025Z,5.59
2023-12-05T22:27:39.648Z,5.34
2023-12-05T22:30:08.455Z,6.91
2023-12-05T22:32:36.081Z,6.56
2023-12-05T22:35:03.670Z,6.62
2023-12-05T22:37:32.524Z,6.95
2023-12-05T22:40:00.039Z,6.17
2023-12-05T22:42:27.791Z,5.60
2023-12-05T22:44:55.216Z,5.80
2023-12-05T22:47:22.889Z,6.32
2023-12-05T22:49:50.525Z,6.28
2023-12-05T22:52:18.023Z,6.39
2023-12-05T22:54:46.788Z,5.90
2023-12-05T22:57:14.944Z,6.64
2023-12-05T22:59:42.620Z,6.32
2023-12-05T23:02:10.351Z,7.22
2023-12-05T23:04:37.797Z,6.54
2023-12-05T23:07:05.478Z,6.09
2023-12-05T23:09:33.078Z,6.22
2023-12-05T23:12:01.865Z,6.78
2023-12-05T23:14:29.328Z,7.46
2023-12-05T23:16:56.745Z,6.81
2023-12-05T23:19:24.520Z,6.33
2023-12-05T23:21:52.239Z,6.76
2023-12-05T23:24:19.791Z,5.33
2023-12-05T23:26:47.237Z,6.38
2023-12-05T23:29:16.146Z,7.33
2023-12-05T23:31:44.292Z,5.94
2023-12-05T23:34:11.965Z,6.34
2023-12-05T23:36:39.625Z,6.87
2023-12-05T23:39:07.083Z,6.67
2023-12-05T23:41:34.513Z,6.83
2023-12-05T23:44:01.992Z,6.80
2023-12-05T23:46:30.836Z,6.93
2023-12-05T23:48:58.403Z,5.63
2023-12-05T23:51:25.863Z,6.17
2023-12-05T23:53:55.262Z,5.82
2023-12-05T23:56:23.180Z,6.66
2023-12-05T23:58:51.250Z,6.80
